sensor_id;sensor_type;location;lat;lon;timestamp;P1;durP1;ratioP1;P2;durP2;ratioP2
47545;SDS011;50104;52.002;4.688;2024-02-21T00:03:52;11.85;;;3.33;;
47545;SDS011;50104;52.002;4.688;2024-02-21T00:08:53;9.05;;;2.80;;
47545;SDS011;50104;52.002;4.688;2024-02-21T00:13:53;12.50;;;3.20;;
47545;SDS011;50104;52.002;4.688;2024-02-21T00:18:55;10.02;;;2.83;;
47545;SDS011;50104;52.002;4.688;2024-02-21T00:23:55;14.60;;;3.45;;
47545;SDS011;50104;52.002;4.688;2024-02-21T00:28:56;17.67;;;4.05;;
47545;SDS011;50104;52.002;4.688;2024-02-21T00:33:57;13.30;;;4.00;;
47545;SDS011;50104;52.002;4.688;2024-02-21T00:38:58;16.00;;;3.95;;
47545;SDS011;50104;52.002;4.688;2024-02-21T00:43:59;12.60;;;3.63;;
47545;SDS011;50104;52.002;4.688;2024-02-21T00:49:00;8.77;;;3.03;;
47545;SDS011;50104;52.002;4.688;2024-02-21T00:54:00;13.20;;;4.57;;
47545;SDS011;50104;52.002;4.688;2024-02-21T00:59:01;11.45;;;4.30;;
47545;SDS011;50104;52.002;4.688;2024-02-21T01:04:02;14.18;;;4.32;;
47545;SDS011;50104;52.002;4.688;2024-02-21T01:09:03;12.77;;;3.38;;
47545;SDS011;50104;52.002;4.688;2024-02-21T01:14:04;17.08;;;3.92;;
47545;SDS011;50104;52.002;4.688;2024-02-21T01:19:05;18.38;;;4.63;;
47545;SDS011;50104;52.002;4.688;2024-02-21T01:24:06;14.60;;;4.57;;
47545;SDS011;50104;52.002;4.688;2024-02-21T01:29:07;15.48;;;4.63;;
47545;SDS011;50104;52.002;4.688;2024-02-21T01:34:07;13.60;;;4.40;;
47545;SDS011;50104;52.002;4.688;2024-02-21T01:39:09;16.95;;;3.80;;
47545;SDS011;50104;52.002;4.688;2024-02-21T01:44:10;14.93;;;4.15;;
47545;SDS011;50104;52.002;4.688;2024-02-21T01:49:11;9.68;;;4.38;;
47545;SDS011;50104;52.002;4.688;2024-02-21T01:54:13;15.18;;;4.60;;
47545;SDS011;50104;52.002;4.688;2024-02-21T01:59:15;14.57;;;3.42;;
47545;SDS011;50104;52.002;4.688;2024-02-21T02:04:18;15.00;;;4.00;;
47545;SDS011;50104;52.002;4.688;2024-02-21T02:09:20;9.88;;;3.45;;
47545;SDS011;50104;52.002;4.688;2024-02-21T02:14:21;13.45;;;4.47;;
47545;SDS011;50104;52.002;4.688;2024-02-21T02:19:22;12.27;;;4.78;;
47545;SDS011;50104;52.002;4.688;2024-02-21T02:24:24;14.60;;;5.80;;
47545;SDS011;50104;52.002;4.688;2024-02-21T02:29:26;12.23;;;5.72;;
47545;SDS011;50104;52.002;4.688;2024-02-21T02:34:27;11.18;;;4.80;;
47545;SDS011;50104;52.002;4.688;2024-02-21T02:39:27;16.38;;;5.28;;
47545;SDS011;50104;52.002;4.688;2024-02-21T02:44:28;21.15;;;5.90;;
47545;SDS011;50104;52.002;4.688;2024-02-21T02:49:29;17.75;;;5.30;;
47545;SDS011;50104;52.002;4.688;2024-02-21T02:54:30;16.08;;;6.15;;
47545;SDS011;50104;52.002;4.688;2024-02-21T02:59:31;14.40;;;5.68;;
47545;SDS011;50104;52.002;4.688;2024-02-21T03:04:32;12.48;;;5.32;;
47545;SDS011;50104;52.002;4.688;2024-02-21T03:09:33;10.80;;;6.03;;
47545;SDS011;50104;52.002;4.688;2024-02-21T03:14:34;14.23;;;5.30;;
47545;SDS011;50104;52.002;4.688;2024-02-21T03:19:35;10.65;;;5.55;;
47545;SDS011;50104;52.002;4.688;2024-02-21T03:24:36;13.55;;;4.70;;
47545;SDS011;50104;52.002;4.688;2024-02-21T03:29:37;13.52;;;5.40;;
47545;SDS011;50104;52.002;4.688;2024-02-21T03:34:39;10.13;;;4.82;;
47545;SDS011;50104;52.002;4.688;2024-02-21T03:39:40;12.75;;;5.63;;
47545;SDS011;50104;52.002;4.688;2024-02-21T03:44:41;11.40;;;6.03;;
47545;SDS011;50104;52.002;4.688;2024-02-21T03:49:42;17.58;;;7.53;;
47545;SDS011;50104;52.002;4.688;2024-02-21T03:54:43;10.38;;;6.55;;
47545;SDS011;50104;52.002;4.688;2024-02-21T03:59:44;9.27;;;5.57;;
47545;SDS011;50104;52.002;4.688;2024-02-21T04:04:45;14.77;;;6.28;;
47545;SDS011;50104;52.002;4.688;2024-02-21T04:09:47;11.65;;;5.55;;
47545;SDS011;50104;52.002;4.688;2024-02-21T04:14:47;12.57;;;5.80;;
47545;SDS011;50104;52.002;4.688;2024-02-21T04:19:48;12.70;;;5.95;;
47545;SDS011;50104;52.002;4.688;2024-02-21T04:24:49;12.13;;;6.07;;
47545;SDS011;50104;52.002;4.688;2024-02-21T04:29:50;11.75;;;5.85;;
47545;SDS011;50104;52.002;4.688;2024-02-21T04:34:51;13.25;;;6.15;;
47545;SDS011;50104;52.002;4.688;2024-02-21T04:39:51;11.35;;;5.38;;
47545;SDS011;50104;52.002;4.688;2024-02-21T04:44:52;11.13;;;6.00;;
47545;SDS011;50104;52.002;4.688;2024-02-21T04:49:53;8.00;;;5.45;;
47545;SDS011;50104;52.002;4.688;2024-02-21T04:54:54;10.25;;;5.97;;
47545;SDS011;50104;52.002;4.688;2024-02-21T04:59:56;12.82;;;8.07;;
47545;SDS011;50104;52.002;4.688;2024-02-21T05:04:57;13.35;;;6.60;;
47545;SDS011;50104;52.002;4.688;2024-02-21T05:09:57;10.45;;;6.45;;
47545;SDS011;50104;52.002;4.688;2024-02-21T05:14:58;13.02;;;6.53;;
47545;SDS011;50104;52.002;4.688;2024-02-21T05:20:02;13.40;;;6.28;;
47545;SDS011;50104;52.002;4.688;2024-02-21T05:25:04;8.73;;;5.97;;
47545;SDS011;50104;52.002;4.688;2024-02-21T05:30:06;12.15;;;6.30;;
47545;SDS011;50104;52.002;4.688;2024-02-21T05:35:07;12.57;;;7.13;;
47545;SDS011;50104;52.002;4.688;2024-02-21T05:40:08;15.68;;;9.65;;
47545;SDS011;50104;52.002;4.688;2024-02-21T05:45:13;15.68;;;9.15;;
47545;SDS011;50104;52.002;4.688;2024-02-21T05:50:15;17.42;;;9.68;;
47545;SDS011;50104;52.002;4.688;2024-02-21T05:55:17;20.35;;;9.63;;
47545;SDS011;50104;52.002;4.688;2024-02-21T06:00:18;15.30;;;9.98;;
47545;SDS011;50104;52.002;4.688;2024-02-21T06:05:19;14.20;;;9.70;;
47545;SDS011;50104;52.002;4.688;2024-02-21T06:10:20;19.98;;;10.85;;
47545;SDS011;50104;52.002;4.688;2024-02-21T06:15:21;18.02;;;9.55;;
47545;SDS011;50104;52.002;4.688;2024-02-21T06:20:22;18.00;;;10.48;;
47545;SDS011;50104;52.002;4.688;2024-02-21T06:25:23;16.95;;;10.48;;
47545;SDS011;50104;52.002;4.688;2024-02-21T06:30:24;21.00;;;10.00;;
47545;SDS011;50104;52.002;4.688;2024-02-21T06:35:24;18.83;;;10.57;;
47545;SDS011;50104;52.002;4.688;2024-02-21T06:40:25;16.08;;;10.07;;
47545;SDS011;50104;52.002;4.688;2024-02-21T06:45:26;21.42;;;10.18;;
47545;SDS011;50104;52.002;4.688;2024-02-21T06:50:27;17.27;;;9.00;;
47545;SDS011;50104;52.002;4.688;2024-02-21T06:55:28;18.77;;;9.80;;
47545;SDS011;50104;52.002;4.688;2024-02-21T07:00:29;34.58;;;10.43;;
47545;SDS011;50104;52.002;4.688;2024-02-21T07:05:30;16.73;;;9.77;;
47545;SDS011;50104;52.002;4.688;2024-02-21T07:10:31;20.08;;;8.88;;
47545;SDS011;50104;52.002;4.688;2024-02-21T07:15:32;20.98;;;9.60;;
47545;SDS011;50104;52.002;4.688;2024-02-21T07:20:33;19.70;;;9.88;;
47545;SDS011;50104;52.002;4.688;2024-02-21T07:25:36;16.10;;;8.88;;
47545;SDS011;50104;52.002;4.688;2024-02-21T07:30:37;20.77;;;9.68;;
47545;SDS011;50104;52.002;4.688;2024-02-21T07:35:38;22.90;;;10.55;;
47545;SDS011;50104;52.002;4.688;2024-02-21T07:40:41;22.00;;;12.65;;
47545;SDS011;50104;52.002;4.688;2024-02-21T07:45:43;23.77;;;11.55;;
47545;SDS011;50104;52.002;4.688;2024-02-21T07:50:43;21.63;;;11.85;;
47545;SDS011;50104;52.002;4.688;2024-02-21T07:55:44;20.67;;;10.93;;
47545;SDS011;50104;52.002;4.688;2024-02-21T08:00:45;17.88;;;10.05;;
47545;SDS011;50104;52.002;4.688;2024-02-21T08:05:46;18.95;;;10.13;;
47545;SDS011;50104;52.002;4.688;2024-02-21T08:10:47;19.35;;;10.27;;
47545;SDS011;50104;52.002;4.688;2024-02-21T08:15:51;23.90;;;11.00;;
47545;SDS011;50104;52.002;4.688;2024-02-21T08:20:52;22.17;;;11.73;;
47545;SDS011;50104;52.002;4.688;2024-02-21T08:25:53;18.92;;;10.48;;
47545;SDS011;50104;52.002;4.688;2024-02-21T08:30:54;20.02;;;9.93;;
47545;SDS011;50104;52.002;4.688;2024-02-21T08:35:55;24.17;;;10.32;;
47545;SDS011;50104;52.002;4.688;2024-02-21T08:40:56;20.95;;;11.38;;
47545;SDS011;50104;52.002;4.688;2024-02-21T08:45:57;20.10;;;10.60;;
47545;SDS011;50104;52.002;4.688;2024-02-21T08:50:57;24.10;;;11.82;;
47545;SDS011;50104;52.002;4.688;2024-02-21T08:55:58;23.42;;;11.50;;
47545;SDS011;50104;52.002;4.688;2024-02-21T09:00:59;21.02;;;12.57;;
47545;SDS011;50104;52.002;4.688;2024-02-21T09:06:00;20.45;;;12.55;;
47545;SDS011;50104;52.002;4.688;2024-02-21T09:11:01;23.95;;;12.30;;
47545;SDS011;50104;52.002;4.688;2024-02-21T09:16:03;23.55;;;12.07;;
47545;SDS011;50104;52.002;4.688;2024-02-21T09:21:06;18.70;;;12.50;;
47545;SDS011;50104;52.002;4.688;2024-02-21T09:26:06;21.25;;;9.63;;
47545;SDS011;50104;52.002;4.688;2024-02-21T09:31:10;19.92;;;10.68;;
47545;SDS011;50104;52.002;4.688;2024-02-21T09:36:11;19.85;;;9.85;;
47545;SDS011;50104;52.002;4.688;2024-02-21T09:46:18;19.65;;;10.25;;
47545;SDS011;50104;52.002;4.688;2024-02-21T09:51:20;15.00;;;9.82;;
47545;SDS011;50104;52.002;4.688;2024-02-21T09:56:21;14.23;;;8.68;;
47545;SDS011;50104;52.002;4.688;2024-02-21T10:01:22;15.93;;;8.40;;
47545;SDS011;50104;52.002;4.688;2024-02-21T10:06:23;14.05;;;8.98;;
47545;SDS011;50104;52.002;4.688;2024-02-21T10:11:24;16.00;;;9.50;;
47545;SDS011;50104;52.002;4.688;2024-02-21T10:16:26;19.48;;;10.30;;
47545;SDS011;50104;52.002;4.688;2024-02-21T10:21:26;14.10;;;9.75;;
47545;SDS011;50104;52.002;4.688;2024-02-21T10:26:27;13.32;;;9.20;;
47545;SDS011;50104;52.002;4.688;2024-02-21T10:31:28;12.77;;;9.80;;
47545;SDS011;50104;52.002;4.688;2024-02-21T10:36:29;16.55;;;9.52;;
47545;SDS011;50104;52.002;4.688;2024-02-21T10:41:30;15.20;;;10.35;;
47545;SDS011;50104;52.002;4.688;2024-02-21T10:46:32;14.35;;;10.05;;
47545;SDS011;50104;52.002;4.688;2024-02-21T10:51:37;14.93;;;9.77;;
47545;SDS011;50104;52.002;4.688;2024-02-21T10:56:43;14.43;;;10.63;;
47545;SDS011;50104;52.002;4.688;2024-02-21T11:01:46;13.25;;;9.93;;
47545;SDS011;50104;52.002;4.688;2024-02-21T11:06:47;15.25;;;9.80;;
47545;SDS011;50104;52.002;4.688;2024-02-21T11:11:50;11.35;;;8.50;;
47545;SDS011;50104;52.002;4.688;2024-02-21T11:16:51;12.68;;;8.32;;
47545;SDS011;50104;52.002;4.688;2024-02-21T11:21:52;12.48;;;8.75;;
47545;SDS011;50104;52.002;4.688;2024-02-21T11:27:18;11.13;;;8.35;;
47545;SDS011;50104;52.002;4.688;2024-02-21T11:32:25;16.48;;;10.75;;
47545;SDS011;50104;52.002;4.688;2024-02-21T11:37:28;17.13;;;10.40;;
47545;SDS011;50104;52.002;4.688;2024-02-21T11:42:30;14.75;;;11.15;;
47545;SDS011;50104;52.002;4.688;2024-02-21T11:47:31;13.85;;;10.52;;
47545;SDS011;50104;52.002;4.688;2024-02-21T11:52:32;14.32;;;9.38;;
47545;SDS011;50104;52.002;4.688;2024-02-21T11:57:32;12.77;;;8.52;;
47545;SDS011;50104;52.002;4.688;2024-02-21T12:02:35;10.23;;;8.18;;
47545;SDS011;50104;52.002;4.688;2024-02-21T12:07:36;14.38;;;9.02;;
47545;SDS011;50104;52.002;4.688;2024-02-21T12:12:40;9.32;;;7.57;;
47545;SDS011;50104;52.002;4.688;2024-02-21T12:17:41;10.88;;;8.18;;
47545;SDS011;50104;52.002;4.688;2024-02-21T12:22:42;10.15;;;7.32;;
47545;SDS011;50104;52.002;4.688;2024-02-21T12:27:43;8.95;;;6.43;;
47545;SDS011;50104;52.002;4.688;2024-02-21T12:32:46;8.05;;;5.88;;
47545;SDS011;50104;52.002;4.688;2024-02-21T12:37:48;10.95;;;6.00;;
47545;SDS011;50104;52.002;4.688;2024-02-21T12:42:49;6.85;;;5.72;;
47545;SDS011;50104;52.002;4.688;2024-02-21T12:47:50;10.70;;;5.93;;
47545;SDS011;50104;52.002;4.688;2024-02-21T12:52:51;8.60;;;5.95;;
47545;SDS011;50104;52.002;4.688;2024-02-21T12:57:52;7.22;;;5.28;;
47545;SDS011;50104;52.002;4.688;2024-02-21T13:02:53;10.75;;;4.93;;
47545;SDS011;50104;52.002;4.688;2024-02-21T13:07:53;9.75;;;5.32;;
47545;SDS011;50104;52.002;4.688;2024-02-21T13:12:54;8.35;;;4.75;;
47545;SDS011;50104;52.002;4.688;2024-02-21T13:17:55;6.60;;;4.70;;
47545;SDS011;50104;52.002;4.688;2024-02-21T13:23:00;8.45;;;5.40;;
47545;SDS011;50104;52.002;4.688;2024-02-21T13:28:01;9.13;;;4.78;;
47545;SDS011;50104;52.002;4.688;2024-02-21T13:33:03;11.95;;;5.20;;
47545;SDS011;50104;52.002;4.688;2024-02-21T13:38:05;9.60;;;5.38;;
47545;SDS011;50104;52.002;4.688;2024-02-21T13:43:07;7.97;;;4.32;;
47545;SDS011;50104;52.002;4.688;2024-02-21T13:48:08;5.97;;;4.13;;
47545;SDS011;50104;52.002;4.688;2024-02-21T13:53:12;8.05;;;4.90;;
47545;SDS011;50104;52.002;4.688;2024-02-21T13:58:13;9.55;;;4.78;;
47545;SDS011;50104;52.002;4.688;2024-02-21T14:03:14;9.55;;;5.55;;
47545;SDS011;50104;52.002;4.688;2024-02-21T14:08:16;8.30;;;5.40;;
47545;SDS011;50104;52.002;4.688;2024-02-21T14:13:17;11.52;;;6.60;;
47545;SDS011;50104;52.002;4.688;2024-02-21T14:18:18;8.13;;;5.30;;
47545;SDS011;50104;52.002;4.688;2024-02-21T14:23:19;8.25;;;5.85;;
47545;SDS011;50104;52.002;4.688;2024-02-21T14:28:21;8.50;;;5.95;;
47545;SDS011;50104;52.002;4.688;2024-02-21T14:33:28;10.02;;;6.25;;
47545;SDS011;50104;52.002;4.688;2024-02-21T14:38:31;8.00;;;5.85;;
47545;SDS011;50104;52.002;4.688;2024-02-21T14:43:31;11.55;;;6.95;;
47545;SDS011;50104;52.002;4.688;2024-02-21T14:48:32;7.88;;;6.90;;
47545;SDS011;50104;52.002;4.688;2024-02-21T14:53:33;10.45;;;7.22;;
47545;SDS011;50104;52.002;4.688;2024-02-21T14:58:34;9.55;;;7.05;;
47545;SDS011;50104;52.002;4.688;2024-02-21T15:03:35;8.73;;;7.20;;
47545;SDS011;50104;52.002;4.688;2024-02-21T15:08:36;11.48;;;6.30;;
47545;SDS011;50104;52.002;4.688;2024-02-21T15:13:37;10.00;;;6.38;;
47545;SDS011;50104;52.002;4.688;2024-02-21T15:18:38;10.70;;;6.28;;
47545;SDS011;50104;52.002;4.688;2024-02-21T15:23:39;9.10;;;5.63;;
47545;SDS011;50104;52.002;4.688;2024-02-21T15:28:41;10.48;;;5.40;;
47545;SDS011;50104;52.002;4.688;2024-02-21T15:33:42;10.50;;;6.18;;
47545;SDS011;50104;52.002;4.688;2024-02-21T15:38:43;14.43;;;6.45;;
47545;SDS011;50104;52.002;4.688;2024-02-21T15:43:46;12.75;;;6.07;;
47545;SDS011;50104;52.002;4.688;2024-02-21T15:48:47;11.95;;;6.55;;
47545;SDS011;50104;52.002;4.688;2024-02-21T15:53:50;12.13;;;7.22;;
47545;SDS011;50104;52.002;4.688;2024-02-21T15:58:51;10.75;;;6.15;;
47545;SDS011;50104;52.002;4.688;2024-02-21T16:03:52;12.20;;;6.50;;
47545;SDS011;50104;52.002;4.688;2024-02-21T16:08:55;11.80;;;7.03;;
47545;SDS011;50104;52.002;4.688;2024-02-21T16:13:56;10.65;;;7.30;;
47545;SDS011;50104;52.002;4.688;2024-02-21T16:19:01;11.82;;;8.18;;
47545;SDS011;50104;52.002;4.688;2024-02-21T16:24:05;11.02;;;7.05;;
47545;SDS011;50104;52.002;4.688;2024-02-21T16:29:06;8.63;;;5.97;;
47545;SDS011;50104;52.002;4.688;2024-02-21T16:34:07;13.38;;;8.95;;
47545;SDS011;50104;52.002;4.688;2024-02-21T16:39:08;12.57;;;9.02;;
47545;SDS011;50104;52.002;4.688;2024-02-21T16:44:11;10.98;;;8.85;;
47545;SDS011;50104;52.002;4.688;2024-02-21T16:49:12;10.23;;;8.75;;
47545;SDS011;50104;52.002;4.688;2024-02-21T16:54:13;14.00;;;10.25;;
47545;SDS011;50104;52.002;4.688;2024-02-21T16:59:20;13.85;;;9.32;;
47545;SDS011;50104;52.002;4.688;2024-02-21T17:04:21;12.18;;;8.88;;
47545;SDS011;50104;52.002;4.688;2024-02-21T17:09:23;12.98;;;8.82;;
47545;SDS011;50104;52.002;4.688;2024-02-21T17:14:23;11.05;;;9.60;;
47545;SDS011;50104;52.002;4.688;2024-02-21T17:19:25;12.60;;;9.25;;
47545;SDS011;50104;52.002;4.688;2024-02-21T17:24:26;12.27;;;10.98;;
47545;SDS011;50104;52.002;4.688;2024-02-21T17:29:27;14.93;;;8.98;;
47545;SDS011;50104;52.002;4.688;2024-02-21T17:34:29;14.18;;;10.35;;
47545;SDS011;50104;52.002;4.688;2024-02-21T17:39:30;13.65;;;9.85;;
47545;SDS011;50104;52.002;4.688;2024-02-21T17:44:30;15.70;;;10.82;;
47545;SDS011;50104;52.002;4.688;2024-02-21T17:49:31;13.10;;;9.95;;
47545;SDS011;50104;52.002;4.688;2024-02-21T17:54:34;13.02;;;9.90;;
47545;SDS011;50104;52.002;4.688;2024-02-21T17:59:35;10.40;;;9.00;;
47545;SDS011;50104;52.002;4.688;2024-02-21T18:04:43;13.13;;;10.07;;
47545;SDS011;50104;52.002;4.688;2024-02-21T18:09:43;11.77;;;10.60;;
47545;SDS011;50104;52.002;4.688;2024-02-21T18:14:44;12.30;;;9.10;;
47545;SDS011;50104;52.002;4.688;2024-02-21T18:19:46;11.30;;;10.02;;
47545;SDS011;50104;52.002;4.688;2024-02-21T18:24:46;12.02;;;9.35;;
47545;SDS011;50104;52.002;4.688;2024-02-21T18:29:47;13.48;;;11.40;;
47545;SDS011;50104;52.002;4.688;2024-02-21T18:34:48;11.07;;;9.68;;
47545;SDS011;50104;52.002;4.688;2024-02-21T18:39:49;13.23;;;10.02;;
47545;SDS011;50104;52.002;4.688;2024-02-21T18:44:50;13.50;;;10.35;;
47545;SDS011;50104;52.002;4.688;2024-02-21T18:49:54;15.70;;;9.70;;
47545;SDS011;50104;52.002;4.688;2024-02-21T18:54:54;12.48;;;10.02;;
47545;SDS011;50104;52.002;4.688;2024-02-21T18:59:55;12.90;;;10.57;;
47545;SDS011;50104;52.002;4.688;2024-02-21T19:04:56;15.43;;;10.13;;
47545;SDS011;50104;52.002;4.688;2024-02-21T19:09:57;14.57;;;11.15;;
47545;SDS011;50104;52.002;4.688;2024-02-21T19:14:58;12.38;;;10.32;;
47545;SDS011;50104;52.002;4.688;2024-02-21T19:19:59;15.05;;;10.32;;
47545;SDS011;50104;52.002;4.688;2024-02-21T19:25:00;11.25;;;9.35;;
47545;SDS011;50104;52.002;4.688;2024-02-21T19:30:07;14.32;;;10.63;;
47545;SDS011;50104;52.002;4.688;2024-02-21T19:35:12;11.52;;;10.35;;
47545;SDS011;50104;52.002;4.688;2024-02-21T19:40:13;13.65;;;10.82;;
47545;SDS011;50104;52.002;4.688;2024-02-21T19:45:15;13.65;;;12.05;;
47545;SDS011;50104;52.002;4.688;2024-02-21T19:50:17;12.57;;;10.45;;
47545;SDS011;50104;52.002;4.688;2024-02-21T19:55:29;12.50;;;11.23;;
47545;SDS011;50104;52.002;4.688;2024-02-21T20:00:30;12.32;;;10.38;;
47545;SDS011;50104;52.002;4.688;2024-02-21T20:05:32;12.32;;;10.45;;
47545;SDS011;50104;52.002;4.688;2024-02-21T20:10:33;14.07;;;10.95;;
47545;SDS011;50104;52.002;4.688;2024-02-21T20:15:33;11.88;;;10.65;;
47545;SDS011;50104;52.002;4.688;2024-02-21T20:20:34;12.05;;;9.82;;
47545;SDS011;50104;52.002;4.688;2024-02-21T20:25:35;11.50;;;9.93;;
47545;SDS011;50104;52.002;4.688;2024-02-21T20:30:36;12.90;;;10.10;;
47545;SDS011;50104;52.002;4.688;2024-02-21T20:35:37;11.50;;;9.75;;
47545;SDS011;50104;52.002;4.688;2024-02-21T20:40:38;13.02;;;11.00;;
47545;SDS011;50104;52.002;4.688;2024-02-21T20:45:39;12.75;;;10.02;;
47545;SDS011;50104;52.002;4.688;2024-02-21T20:50:39;13.65;;;11.18;;
47545;SDS011;50104;52.002;4.688;2024-02-21T20:55:40;14.93;;;13.18;;
47545;SDS011;50104;52.002;4.688;2024-02-21T21:00:41;15.73;;;12.15;;
47545;SDS011;50104;52.002;4.688;2024-02-21T21:05:42;15.48;;;12.05;;
47545;SDS011;50104;52.002;4.688;2024-02-21T21:10:43;16.38;;;13.57;;
47545;SDS011;50104;52.002;4.688;2024-02-21T21:15:44;16.83;;;13.88;;
47545;SDS011;50104;52.002;4.688;2024-02-21T21:20:45;13.80;;;9.75;;
47545;SDS011;50104;52.002;4.688;2024-02-21T21:25:46;14.40;;;11.57;;
47545;SDS011;50104;52.002;4.688;2024-02-21T21:30:47;16.10;;;12.85;;
47545;SDS011;50104;52.002;4.688;2024-02-21T21:35:49;16.33;;;13.07;;
47545;SDS011;50104;52.002;4.688;2024-02-21T21:40:52;16.52;;;11.98;;
47545;SDS011;50104;52.002;4.688;2024-02-21T21:45:53;15.07;;;11.32;;
47545;SDS011;50104;52.002;4.688;2024-02-21T21:50:53;15.18;;;10.18;;
47545;SDS011;50104;52.002;4.688;2024-02-21T21:55:55;15.45;;;10.68;;
47545;SDS011;50104;52.002;4.688;2024-02-21T22:00:56;11.43;;;9.23;;
47545;SDS011;50104;52.002;4.688;2024-02-21T22:05:57;12.82;;;9.98;;
47545;SDS011;50104;52.002;4.688;2024-02-21T22:10:58;12.63;;;10.23;;
47545;SDS011;50104;52.002;4.688;2024-02-21T22:15:58;11.90;;;9.05;;
47545;SDS011;50104;52.002;4.688;2024-02-21T22:20:59;13.35;;;10.30;;
47545;SDS011;50104;52.002;4.688;2024-02-21T22:26:00;10.75;;;8.50;;
47545;SDS011;50104;52.002;4.688;2024-02-21T22:31:01;10.32;;;8.50;;
47545;SDS011;50104;52.002;4.688;2024-02-21T22:36:02;11.40;;;9.05;;
47545;SDS011;50104;52.002;4.688;2024-02-21T22:41:03;12.20;;;9.50;;
47545;SDS011;50104;52.002;4.688;2024-02-21T22:46:04;11.63;;;9.05;;
47545;SDS011;50104;52.002;4.688;2024-02-21T22:51:06;12.25;;;9.07;;
47545;SDS011;50104;52.002;4.688;2024-02-21T22:56:08;12.68;;;8.77;;
47545;SDS011;50104;52.002;4.688;2024-02-21T23:01:14;10.98;;;8.73;;
47545;SDS011;50104;52.002;4.688;2024-02-21T23:06:17;11.27;;;8.25;;
47545;SDS011;50104;52.002;4.688;2024-02-21T23:11:20;10.77;;;8.35;;
47545;SDS011;50104;52.002;4.688;2024-02-21T23:16:20;10.30;;;7.93;;
47545;SDS011;50104;52.002;4.688;2024-02-21T23:21:21;9.60;;;7.30;;
47545;SDS011;50104;52.002;4.688;2024-02-21T23:26:28;9.27;;;7.35;;
47545;SDS011;50104;52.002;4.688;2024-02-21T23:31:31;7.68;;;6.30;;
47545;SDS011;50104;52.002;4.688;2024-02-21T23:36:32;6.75;;;5.40;;
47545;SDS011;50104;52.002;4.688;2024-02-21T23:41:32;6.25;;;5.15;;
47545;SDS011;50104;52.002;4.688;2024-02-21T23:46:33;8.30;;;5.65;;
47545;SDS011;50104;52.002;4.688;2024-02-21T23:51:34;7.45;;;5.63;;
47545;SDS011;50104;52.002;4.688;2024-02-21T23:56:35;6.25;;;4.75;;
